4T2 weather

Kenneth Copeland Airport
Fort Worth, Texas, United States

Public forecast

Using degrees Fahrenheit for public forecast. Weather courtesy of forecast.io.

METAR (pilot weather report)

Closest report is Fort Worth Alliance Airport, 8.6 nm (15.9 km) E. Retrieved 2019/07/19 10:53 UTC (50 minutes ago):

KAFW 191053Z 19010KT 10SM CLR 27/22 A2993 RMK AO2 SLP116 T02670217

TAF (pilot weather forecast)

Closest forecast is Fort Worth Alliance Airport, 8.6 nm (15.9 km) E. Retrieved 2019/07/19 06:27 UTC (5 hours ago):

TAF KAFW 190525Z 1906/2006 16015KT P6SM SKC